sensor_id;sensor_type;location;lat;lon;timestamp;P1;durP1;ratioP1;P2;durP2;ratioP2
75216;SDS011;63800;51.972;5.682;2024-01-07T00:01:28;23.80;;;13.80;;
75216;SDS011;63800;51.972;5.682;2024-01-07T00:03:53;25.27;;;13.93;;
75216;SDS011;63800;51.972;5.682;2024-01-07T00:06:19;24.35;;;13.55;;
75216;SDS011;63800;51.972;5.682;2024-01-07T00:08:44;28.95;;;14.70;;
75216;SDS011;63800;51.972;5.682;2024-01-07T00:11:10;25.40;;;14.30;;
75216;SDS011;63800;51.972;5.682;2024-01-07T00:13:35;26.45;;;14.35;;
75216;SDS011;63800;51.972;5.682;2024-01-07T00:16:01;28.05;;;14.35;;
75216;SDS011;63800;51.972;5.682;2024-01-07T00:18:26;25.92;;;13.60;;
75216;SDS011;63800;51.972;5.682;2024-01-07T00:20:53;27.65;;;12.73;;
75216;SDS011;63800;51.972;5.682;2024-01-07T00:23:18;27.55;;;13.35;;
75216;SDS011;63800;51.972;5.682;2024-01-07T00:25:45;24.85;;;13.38;;
75216;SDS011;63800;51.972;5.682;2024-01-07T00:28:11;29.25;;;14.40;;
75216;SDS011;63800;51.972;5.682;2024-01-07T00:30:37;25.63;;;13.20;;
75216;SDS011;63800;51.972;5.682;2024-01-07T00:33:02;26.15;;;13.43;;
75216;SDS011;63800;51.972;5.682;2024-01-07T00:35:28;27.45;;;14.27;;
75216;SDS011;63800;51.972;5.682;2024-01-07T00:37:53;27.38;;;14.10;;
75216;SDS011;63800;51.972;5.682;2024-01-07T00:40:21;30.20;;;15.07;;
75216;SDS011;63800;51.972;5.682;2024-01-07T00:42:47;28.35;;;14.98;;
75216;SDS011;63800;51.972;5.682;2024-01-07T00:45:13;25.48;;;13.65;;
75216;SDS011;63800;51.972;5.682;2024-01-07T00:47:38;27.80;;;14.43;;
75216;SDS011;63800;51.972;5.682;2024-01-07T00:50:04;25.33;;;14.00;;
75216;SDS011;63800;51.972;5.682;2024-01-07T00:52:29;29.30;;;14.23;;
75216;SDS011;63800;51.972;5.682;2024-01-07T00:54:55;29.50;;;14.30;;
75216;SDS011;63800;51.972;5.682;2024-01-07T00:57:21;30.58;;;15.52;;
75216;SDS011;63800;51.972;5.682;2024-01-07T00:59:47;30.00;;;15.10;;
75216;SDS011;63800;51.972;5.682;2024-01-07T01:02:12;32.13;;;15.77;;
75216;SDS011;63800;51.972;5.682;2024-01-07T01:04:38;30.20;;;15.02;;
75216;SDS011;63800;51.972;5.682;2024-01-07T01:07:05;33.22;;;15.90;;
75216;SDS011;63800;51.972;5.682;2024-01-07T01:09:32;31.38;;;16.20;;
75216;SDS011;63800;51.972;5.682;2024-01-07T01:11:59;30.73;;;16.55;;
75216;SDS011;63800;51.972;5.682;2024-01-07T01:14:24;35.70;;;16.83;;
75216;SDS011;63800;51.972;5.682;2024-01-07T01:16:50;32.92;;;15.85;;
75216;SDS011;63800;51.972;5.682;2024-01-07T01:19:16;32.17;;;16.50;;
75216;SDS011;63800;51.972;5.682;2024-01-07T01:21:43;35.90;;;17.58;;
75216;SDS011;63800;51.972;5.682;2024-01-07T01:24:08;37.78;;;17.10;;
75216;SDS011;63800;51.972;5.682;2024-01-07T01:26:34;35.95;;;17.50;;
75216;SDS011;63800;51.972;5.682;2024-01-07T01:29:00;33.58;;;16.75;;
75216;SDS011;63800;51.972;5.682;2024-01-07T01:31:25;36.10;;;18.38;;
75216;SDS011;63800;51.972;5.682;2024-01-07T01:33:51;36.00;;;17.80;;
75216;SDS011;63800;51.972;5.682;2024-01-07T01:36:16;33.90;;;17.00;;
75216;SDS011;63800;51.972;5.682;2024-01-07T01:38:41;36.15;;;18.02;;
75216;SDS011;63800;51.972;5.682;2024-01-07T01:41:07;33.28;;;17.15;;
75216;SDS011;63800;51.972;5.682;2024-01-07T01:43:32;33.70;;;18.20;;
75216;SDS011;63800;51.972;5.682;2024-01-07T01:45:58;33.67;;;18.27;;
75216;SDS011;63800;51.972;5.682;2024-01-07T01:48:24;34.08;;;17.70;;
75216;SDS011;63800;51.972;5.682;2024-01-07T01:50:51;36.15;;;18.60;;
75216;SDS011;63800;51.972;5.682;2024-01-07T01:53:19;35.42;;;18.10;;
75216;SDS011;63800;51.972;5.682;2024-01-07T01:55:44;33.25;;;18.00;;
75216;SDS011;63800;51.972;5.682;2024-01-07T01:58:10;36.38;;;18.95;;
75216;SDS011;63800;51.972;5.682;2024-01-07T02:00:38;32.50;;;16.77;;
75216;SDS011;63800;51.972;5.682;2024-01-07T02:03:04;30.52;;;16.52;;
75216;SDS011;63800;51.972;5.682;2024-01-07T02:05:30;32.35;;;17.05;;
75216;SDS011;63800;51.972;5.682;2024-01-07T02:07:56;35.17;;;16.75;;
75216;SDS011;63800;51.972;5.682;2024-01-07T02:10:23;36.58;;;16.65;;
75216;SDS011;63800;51.972;5.682;2024-01-07T02:12:48;29.20;;;15.82;;
75216;SDS011;63800;51.972;5.682;2024-01-07T02:15:14;29.20;;;15.13;;
75216;SDS011;63800;51.972;5.682;2024-01-07T02:17:40;30.73;;;16.48;;
75216;SDS011;63800;51.972;5.682;2024-01-07T02:20:06;30.60;;;15.55;;
75216;SDS011;63800;51.972;5.682;2024-01-07T02:22:31;32.97;;;16.85;;
75216;SDS011;63800;51.972;5.682;2024-01-07T02:24:57;31.02;;;15.38;;
75216;SDS011;63800;51.972;5.682;2024-01-07T02:27:22;33.47;;;16.23;;
75216;SDS011;63800;51.972;5.682;2024-01-07T02:29:48;29.17;;;16.45;;
75216;SDS011;63800;51.972;5.682;2024-01-07T02:32:13;29.67;;;15.68;;
75216;SDS011;63800;51.972;5.682;2024-01-07T02:34:39;32.10;;;16.42;;
75216;SDS011;63800;51.972;5.682;2024-01-07T02:37:04;30.90;;;15.85;;
75216;SDS011;63800;51.972;5.682;2024-01-07T02:39:30;34.47;;;16.90;;
75216;SDS011;63800;51.972;5.682;2024-01-07T02:41:55;34.80;;;17.02;;
75216;SDS011;63800;51.972;5.682;2024-01-07T02:44:20;34.92;;;16.90;;
75216;SDS011;63800;51.972;5.682;2024-01-07T02:46:46;32.30;;;16.88;;
75216;SDS011;63800;51.972;5.682;2024-01-07T02:49:12;34.55;;;16.35;;
75216;SDS011;63800;51.972;5.682;2024-01-07T02:51:38;31.80;;;16.55;;
75216;SDS011;63800;51.972;5.682;2024-01-07T02:54:03;27.23;;;14.10;;
75216;SDS011;63800;51.972;5.682;2024-01-07T02:56:29;34.15;;;15.70;;
75216;SDS011;63800;51.972;5.682;2024-01-07T02:58:54;31.25;;;16.40;;
75216;SDS011;63800;51.972;5.682;2024-01-07T03:01:21;29.75;;;14.43;;
75216;SDS011;63800;51.972;5.682;2024-01-07T03:03:48;31.00;;;15.85;;
75216;SDS011;63800;51.972;5.682;2024-01-07T03:06:13;32.47;;;15.73;;
75216;SDS011;63800;51.972;5.682;2024-01-07T03:08:39;33.83;;;16.50;;
75216;SDS011;63800;51.972;5.682;2024-01-07T03:11:07;32.70;;;16.95;;
75216;SDS011;63800;51.972;5.682;2024-01-07T03:13:33;33.28;;;16.73;;
75216;SDS011;63800;51.972;5.682;2024-01-07T03:15:58;32.20;;;16.85;;
75216;SDS011;63800;51.972;5.682;2024-01-07T03:18:24;32.50;;;16.77;;
75216;SDS011;63800;51.972;5.682;2024-01-07T03:20:49;31.65;;;15.95;;
75216;SDS011;63800;51.972;5.682;2024-01-07T03:23:14;35.90;;;16.95;;
75216;SDS011;63800;51.972;5.682;2024-01-07T03:25:40;40.63;;;18.95;;
75216;SDS011;63800;51.972;5.682;2024-01-07T03:28:06;34.50;;;18.42;;
75216;SDS011;63800;51.972;5.682;2024-01-07T03:30:31;35.45;;;17.75;;
75216;SDS011;63800;51.972;5.682;2024-01-07T03:32:57;34.88;;;16.65;;
75216;SDS011;63800;51.972;5.682;2024-01-07T03:35:22;36.53;;;15.95;;
75216;SDS011;63800;51.972;5.682;2024-01-07T03:37:49;31.45;;;14.88;;
75216;SDS011;63800;51.972;5.682;2024-01-07T03:40:14;31.23;;;15.57;;
75216;SDS011;63800;51.972;5.682;2024-01-07T03:42:40;27.10;;;14.23;;
75216;SDS011;63800;51.972;5.682;2024-01-07T03:45:05;29.92;;;14.60;;
75216;SDS011;63800;51.972;5.682;2024-01-07T03:47:31;29.88;;;14.02;;
75216;SDS011;63800;51.972;5.682;2024-01-07T03:49:57;31.25;;;14.40;;
75216;SDS011;63800;51.972;5.682;2024-01-07T03:52:22;29.70;;;15.60;;
75216;SDS011;63800;51.972;5.682;2024-01-07T03:54:47;28.58;;;15.07;;
75216;SDS011;63800;51.972;5.682;2024-01-07T03:57:13;29.08;;;15.25;;
75216;SDS011;63800;51.972;5.682;2024-01-07T03:59:38;29.08;;;15.35;;
75216;SDS011;63800;51.972;5.682;2024-01-07T04:02:04;26.65;;;13.38;;
75216;SDS011;63800;51.972;5.682;2024-01-07T04:04:29;26.30;;;13.80;;
75216;SDS011;63800;51.972;5.682;2024-01-07T04:06:55;25.30;;;13.73;;
75216;SDS011;63800;51.972;5.682;2024-01-07T04:09:21;25.60;;;13.35;;
75216;SDS011;63800;51.972;5.682;2024-01-07T04:11:46;26.58;;;13.57;;
75216;SDS011;63800;51.972;5.682;2024-01-07T04:14:14;21.38;;;13.13;;
75216;SDS011;63800;51.972;5.682;2024-01-07T04:16:42;24.00;;;13.15;;
75216;SDS011;63800;51.972;5.682;2024-01-07T04:19:07;24.88;;;14.10;;
75216;SDS011;63800;51.972;5.682;2024-01-07T04:21:33;24.83;;;13.30;;
75216;SDS011;63800;51.972;5.682;2024-01-07T04:23:58;24.45;;;14.40;;
75216;SDS011;63800;51.972;5.682;2024-01-07T04:26:24;25.95;;;13.48;;
75216;SDS011;63800;51.972;5.682;2024-01-07T04:28:49;25.63;;;14.00;;
75216;SDS011;63800;51.972;5.682;2024-01-07T04:31:15;24.73;;;14.75;;
75216;SDS011;63800;51.972;5.682;2024-01-07T04:33:40;26.45;;;14.98;;
75216;SDS011;63800;51.972;5.682;2024-01-07T04:36:06;24.80;;;13.93;;
75216;SDS011;63800;51.972;5.682;2024-01-07T04:38:32;27.30;;;14.07;;
75216;SDS011;63800;51.972;5.682;2024-01-07T04:40:57;26.80;;;14.25;;
75216;SDS011;63800;51.972;5.682;2024-01-07T04:43:22;26.35;;;15.20;;
75216;SDS011;63800;51.972;5.682;2024-01-07T04:45:48;23.70;;;13.95;;
75216;SDS011;63800;51.972;5.682;2024-01-07T04:48:13;25.38;;;14.18;;
75216;SDS011;63800;51.972;5.682;2024-01-07T04:50:39;26.52;;;14.25;;
75216;SDS011;63800;51.972;5.682;2024-01-07T04:53:07;24.10;;;12.90;;
75216;SDS011;63800;51.972;5.682;2024-01-07T04:55:33;24.33;;;13.57;;
75216;SDS011;63800;51.972;5.682;2024-01-07T04:57:59;22.10;;;13.63;;
75216;SDS011;63800;51.972;5.682;2024-01-07T05:00:24;21.13;;;12.75;;
75216;SDS011;63800;51.972;5.682;2024-01-07T05:02:50;25.13;;;13.65;;
75216;SDS011;63800;51.972;5.682;2024-01-07T05:05:15;20.40;;;13.05;;
75216;SDS011;63800;51.972;5.682;2024-01-07T05:07:41;23.77;;;13.57;;
75216;SDS011;63800;51.972;5.682;2024-01-07T05:10:07;24.38;;;13.52;;
75216;SDS011;63800;51.972;5.682;2024-01-07T05:12:32;23.20;;;12.65;;
75216;SDS011;63800;51.972;5.682;2024-01-07T05:14:58;22.75;;;13.15;;
75216;SDS011;63800;51.972;5.682;2024-01-07T05:17:23;23.65;;;13.38;;
75216;SDS011;63800;51.972;5.682;2024-01-07T05:19:49;24.45;;;13.48;;
75216;SDS011;63800;51.972;5.682;2024-01-07T05:22:14;22.10;;;13.52;;
75216;SDS011;63800;51.972;5.682;2024-01-07T05:24:40;23.20;;;12.95;;
75216;SDS011;63800;51.972;5.682;2024-01-07T05:27:05;20.58;;;12.25;;
75216;SDS011;63800;51.972;5.682;2024-01-07T05:29:31;24.25;;;13.00;;
75216;SDS011;63800;51.972;5.682;2024-01-07T05:32:00;22.05;;;13.52;;
75216;SDS011;63800;51.972;5.682;2024-01-07T05:34:27;24.85;;;13.63;;
75216;SDS011;63800;51.972;5.682;2024-01-07T05:36:52;22.08;;;13.27;;
75216;SDS011;63800;51.972;5.682;2024-01-07T05:39:18;20.23;;;12.35;;
75216;SDS011;63800;51.972;5.682;2024-01-07T05:41:43;22.83;;;12.52;;
75216;SDS011;63800;51.972;5.682;2024-01-07T05:44:09;20.50;;;12.23;;
75216;SDS011;63800;51.972;5.682;2024-01-07T05:46:37;20.98;;;12.55;;
75216;SDS011;63800;51.972;5.682;2024-01-07T05:49:04;19.02;;;11.75;;
75216;SDS011;63800;51.972;5.682;2024-01-07T05:51:30;21.20;;;11.70;;
75216;SDS011;63800;51.972;5.682;2024-01-07T05:53:55;22.05;;;12.20;;
75216;SDS011;63800;51.972;5.682;2024-01-07T05:56:21;19.92;;;12.10;;
75216;SDS011;63800;51.972;5.682;2024-01-07T05:58:46;21.42;;;12.68;;
75216;SDS011;63800;51.972;5.682;2024-01-07T06:01:17;18.58;;;11.88;;
75216;SDS011;63800;51.972;5.682;2024-01-07T06:03:46;18.30;;;12.35;;
75216;SDS011;63800;51.972;5.682;2024-01-07T06:06:15;20.20;;;11.90;;
75216;SDS011;63800;51.972;5.682;2024-01-07T06:08:43;20.10;;;11.52;;
75216;SDS011;63800;51.972;5.682;2024-01-07T06:11:09;19.08;;;11.45;;
75216;SDS011;63800;51.972;5.682;2024-01-07T06:13:37;18.35;;;12.02;;
75216;SDS011;63800;51.972;5.682;2024-01-07T06:16:02;19.45;;;11.95;;
75216;SDS011;63800;51.972;5.682;2024-01-07T06:18:28;22.80;;;11.88;;
75216;SDS011;63800;51.972;5.682;2024-01-07T06:20:53;20.00;;;12.15;;
75216;SDS011;63800;51.972;5.682;2024-01-07T06:23:18;20.50;;;12.40;;
75216;SDS011;63800;51.972;5.682;2024-01-07T06:25:44;20.23;;;11.82;;
75216;SDS011;63800;51.972;5.682;2024-01-07T06:28:09;17.65;;;11.57;;
75216;SDS011;63800;51.972;5.682;2024-01-07T06:30:35;17.35;;;11.50;;
75216;SDS011;63800;51.972;5.682;2024-01-07T06:33:01;17.60;;;11.63;;
75216;SDS011;63800;51.972;5.682;2024-01-07T06:35:26;17.73;;;11.35;;
75216;SDS011;63800;51.972;5.682;2024-01-07T06:37:52;18.05;;;11.38;;
75216;SDS011;63800;51.972;5.682;2024-01-07T06:40:18;17.00;;;10.75;;
75216;SDS011;63800;51.972;5.682;2024-01-07T06:42:43;16.73;;;10.73;;
75216;SDS011;63800;51.972;5.682;2024-01-07T06:45:09;16.27;;;10.73;;
75216;SDS011;63800;51.972;5.682;2024-01-07T06:47:35;19.02;;;11.63;;
75216;SDS011;63800;51.972;5.682;2024-01-07T06:50:00;20.15;;;11.38;;
75216;SDS011;63800;51.972;5.682;2024-01-07T06:52:26;20.45;;;11.40;;
75216;SDS011;63800;51.972;5.682;2024-01-07T06:54:51;18.00;;;11.02;;
75216;SDS011;63800;51.972;5.682;2024-01-07T06:57:16;18.15;;;10.52;;
75216;SDS011;63800;51.972;5.682;2024-01-07T06:59:42;16.98;;;10.88;;
75216;SDS011;63800;51.972;5.682;2024-01-07T07:02:08;18.27;;;10.55;;
75216;SDS011;63800;51.972;5.682;2024-01-07T07:04:33;18.60;;;11.50;;
75216;SDS011;63800;51.972;5.682;2024-01-07T07:06:58;17.40;;;11.32;;
75216;SDS011;63800;51.972;5.682;2024-01-07T07:09:25;18.15;;;10.77;;
75216;SDS011;63800;51.972;5.682;2024-01-07T07:11:50;20.17;;;12.10;;
75216;SDS011;63800;51.972;5.682;2024-01-07T07:14:16;18.67;;;11.98;;
75216;SDS011;63800;51.972;5.682;2024-01-07T07:16:41;18.95;;;11.30;;
75216;SDS011;63800;51.972;5.682;2024-01-07T07:19:06;22.80;;;12.07;;
75216;SDS011;63800;51.972;5.682;2024-01-07T07:21:32;19.55;;;11.40;;
75216;SDS011;63800;51.972;5.682;2024-01-07T07:23:58;18.38;;;11.52;;
75216;SDS011;63800;51.972;5.682;2024-01-07T07:26:23;17.83;;;11.50;;
75216;SDS011;63800;51.972;5.682;2024-01-07T07:28:48;19.27;;;11.93;;
75216;SDS011;63800;51.972;5.682;2024-01-07T07:31:14;17.90;;;11.10;;
75216;SDS011;63800;51.972;5.682;2024-01-07T07:33:39;18.58;;;11.65;;
75216;SDS011;63800;51.972;5.682;2024-01-07T07:36:05;20.10;;;11.27;;
75216;SDS011;63800;51.972;5.682;2024-01-07T07:38:31;18.50;;;11.35;;
75216;SDS011;63800;51.972;5.682;2024-01-07T07:40:57;19.67;;;11.85;;
75216;SDS011;63800;51.972;5.682;2024-01-07T07:43:23;20.83;;;11.85;;
75216;SDS011;63800;51.972;5.682;2024-01-07T07:45:49;21.80;;;11.70;;
75216;SDS011;63800;51.972;5.682;2024-01-07T07:48:16;19.60;;;11.35;;
75216;SDS011;63800;51.972;5.682;2024-01-07T07:50:42;19.33;;;11.30;;
75216;SDS011;63800;51.972;5.682;2024-01-07T07:53:08;17.90;;;11.15;;
75216;SDS011;63800;51.972;5.682;2024-01-07T07:55:33;18.33;;;11.43;;
75216;SDS011;63800;51.972;5.682;2024-01-07T07:57:59;20.20;;;11.77;;
75216;SDS011;63800;51.972;5.682;2024-01-07T08:00:24;19.02;;;11.45;;
75216;SDS011;63800;51.972;5.682;2024-01-07T08:02:50;20.73;;;11.57;;
75216;SDS011;63800;51.972;5.682;2024-01-07T08:05:15;19.83;;;11.13;;
75216;SDS011;63800;51.972;5.682;2024-01-07T08:07:41;20.88;;;11.75;;
75216;SDS011;63800;51.972;5.682;2024-01-07T08:10:07;20.55;;;11.98;;
75216;SDS011;63800;51.972;5.682;2024-01-07T08:12:33;19.50;;;12.50;;
75216;SDS011;63800;51.972;5.682;2024-01-07T08:14:58;18.00;;;11.20;;
75216;SDS011;63800;51.972;5.682;2024-01-07T08:17:24;15.65;;;11.10;;
75216;SDS011;63800;51.972;5.682;2024-01-07T08:19:49;17.08;;;10.30;;
75216;SDS011;63800;51.972;5.682;2024-01-07T08:22:15;13.43;;;10.07;;
75216;SDS011;63800;51.972;5.682;2024-01-07T08:24:40;14.13;;;9.93;;
75216;SDS011;63800;51.972;5.682;2024-01-07T08:27:06;14.13;;;9.00;;
75216;SDS011;63800;51.972;5.682;2024-01-07T08:29:32;12.98;;;9.32;;
75216;SDS011;63800;51.972;5.682;2024-01-07T08:31:57;12.13;;;8.80;;
75216;SDS011;63800;51.972;5.682;2024-01-07T08:34:23;15.18;;;9.45;;
75216;SDS011;63800;51.972;5.682;2024-01-07T08:36:48;14.07;;;8.75;;
75216;SDS011;63800;51.972;5.682;2024-01-07T08:39:14;13.57;;;9.27;;
75216;SDS011;63800;51.972;5.682;2024-01-07T08:41:40;13.07;;;8.85;;
75216;SDS011;63800;51.972;5.682;2024-01-07T08:44:05;15.13;;;9.40;;
75216;SDS011;63800;51.972;5.682;2024-01-07T08:46:33;11.82;;;8.43;;
75216;SDS011;63800;51.972;5.682;2024-01-07T08:48:59;13.05;;;9.27;;
75216;SDS011;63800;51.972;5.682;2024-01-07T08:51:24;10.00;;;8.27;;
75216;SDS011;63800;51.972;5.682;2024-01-07T08:53:49;13.43;;;9.27;;
75216;SDS011;63800;51.972;5.682;2024-01-07T08:56:15;12.07;;;8.75;;
75216;SDS011;63800;51.972;5.682;2024-01-07T08:58:43;13.60;;;9.10;;
75216;SDS011;63800;51.972;5.682;2024-01-07T09:01:09;14.43;;;9.18;;
75216;SDS011;63800;51.972;5.682;2024-01-07T09:03:34;12.32;;;8.82;;
75216;SDS011;63800;51.972;5.682;2024-01-07T09:06:00;12.45;;;9.23;;
75216;SDS011;63800;51.972;5.682;2024-01-07T09:08:25;13.52;;;8.80;;
75216;SDS011;63800;51.972;5.682;2024-01-07T09:10:51;12.68;;;9.45;;
75216;SDS011;63800;51.972;5.682;2024-01-07T09:13:16;12.18;;;8.52;;
75216;SDS011;63800;51.972;5.682;2024-01-07T09:15:41;14.05;;;9.15;;
75216;SDS011;63800;51.972;5.682;2024-01-07T09:18:07;14.77;;;8.90;;
75216;SDS011;63800;51.972;5.682;2024-01-07T09:20:32;13.35;;;8.70;;
75216;SDS011;63800;51.972;5.682;2024-01-07T09:22:59;14.57;;;9.10;;
75216;SDS011;63800;51.972;5.682;2024-01-07T09:25:24;12.38;;;8.85;;
75216;SDS011;63800;51.972;5.682;2024-01-07T09:27:51;13.77;;;8.95;;
75216;SDS011;63800;51.972;5.682;2024-01-07T09:30:16;13.35;;;9.10;;
75216;SDS011;63800;51.972;5.682;2024-01-07T09:32:42;11.05;;;8.52;;
75216;SDS011;63800;51.972;5.682;2024-01-07T09:35:08;14.20;;;9.07;;
75216;SDS011;63800;51.972;5.682;2024-01-07T09:37:34;14.20;;;8.90;;
75216;SDS011;63800;51.972;5.682;2024-01-07T09:40:00;14.77;;;9.35;;
75216;SDS011;63800;51.972;5.682;2024-01-07T09:42:26;11.32;;;8.32;;
75216;SDS011;63800;51.972;5.682;2024-01-07T09:44:51;12.93;;;8.38;;
75216;SDS011;63800;51.972;5.682;2024-01-07T09:47:17;13.60;;;8.82;;
75216;SDS011;63800;51.972;5.682;2024-01-07T09:49:43;13.60;;;8.30;;
75216;SDS011;63800;51.972;5.682;2024-01-07T09:52:10;12.77;;;8.32;;
75216;SDS011;63800;51.972;5.682;2024-01-07T09:54:36;12.10;;;8.45;;
75216;SDS011;63800;51.972;5.682;2024-01-07T09:57:08;12.57;;;7.88;;
75216;SDS011;63800;51.972;5.682;2024-01-07T09:59:34;11.55;;;8.18;;
75216;SDS011;63800;51.972;5.682;2024-01-07T10:02:01;11.57;;;7.88;;
75216;SDS011;63800;51.972;5.682;2024-01-07T10:04:28;12.05;;;7.95;;
75216;SDS011;63800;51.972;5.682;2024-01-07T10:06:54;11.90;;;7.80;;
75216;SDS011;63800;51.972;5.682;2024-01-07T10:09:19;11.40;;;7.82;;
75216;SDS011;63800;51.972;5.682;2024-01-07T10:11:49;12.75;;;8.02;;
75216;SDS011;63800;51.972;5.682;2024-01-07T10:14:14;10.05;;;7.63;;
75216;SDS011;63800;51.972;5.682;2024-01-07T10:16:40;11.13;;;7.65;;
75216;SDS011;63800;51.972;5.682;2024-01-07T10:19:05;11.57;;;6.82;;
75216;SDS011;63800;51.972;5.682;2024-01-07T10:21:33;11.77;;;7.55;;
75216;SDS011;63800;51.972;5.682;2024-01-07T10:24:11;13.02;;;7.30;;
75216;SDS011;63800;51.972;5.682;2024-01-07T10:26:37;12.45;;;7.03;;
75216;SDS011;63800;51.972;5.682;2024-01-07T10:29:03;11.27;;;7.40;;
75216;SDS011;63800;51.972;5.682;2024-01-07T10:31:29;11.20;;;6.97;;
75216;SDS011;63800;51.972;5.682;2024-01-07T10:33:56;12.65;;;6.70;;
75216;SDS011;63800;51.972;5.682;2024-01-07T10:36:22;9.88;;;7.35;;
75216;SDS011;63800;51.972;5.682;2024-01-07T10:38:49;10.63;;;7.22;;
75216;SDS011;63800;51.972;5.682;2024-01-07T10:41:15;10.07;;;6.72;;
75216;SDS011;63800;51.972;5.682;2024-01-07T10:43:46;9.90;;;6.93;;
75216;SDS011;63800;51.972;5.682;2024-01-07T10:46:13;8.48;;;6.57;;
75216;SDS011;63800;51.972;5.682;2024-01-07T10:48:42;7.05;;;5.53;;
75216;SDS011;63800;51.972;5.682;2024-01-07T10:51:15;8.52;;;5.57;;
75216;SDS011;63800;51.972;5.682;2024-01-07T10:53:42;8.50;;;5.57;;
75216;SDS011;63800;51.972;5.682;2024-01-07T10:56:11;8.23;;;5.38;;
75216;SDS011;63800;51.972;5.682;2024-01-07T10:58:37;8.60;;;5.82;;
75216;SDS011;63800;51.972;5.682;2024-01-07T11:01:05;8.73;;;5.88;;
75216;SDS011;63800;51.972;5.682;2024-01-07T11:03:37;6.75;;;5.30;;
75216;SDS011;63800;51.972;5.682;2024-01-07T11:06:11;6.78;;;5.18;;
75216;SDS011;63800;51.972;5.682;2024-01-07T11:08:52;8.02;;;5.20;;
75216;SDS011;63800;51.972;5.682;2024-01-07T11:11:25;8.45;;;5.43;;
75216;SDS011;63800;51.972;5.682;2024-01-07T11:13:52;6.97;;;5.10;;
75216;SDS011;63800;51.972;5.682;2024-01-07T11:19:06;7.82;;;5.35;;
75216;SDS011;63800;51.972;5.682;2024-01-07T11:21:31;6.95;;;5.10;;
75216;SDS011;63800;51.972;5.682;2024-01-07T11:23:57;7.18;;;5.30;;
75216;SDS011;63800;51.972;5.682;2024-01-07T11:26:22;7.63;;;5.35;;
75216;SDS011;63800;51.972;5.682;2024-01-07T11:28:54;6.20;;;5.20;;
75216;SDS011;63800;51.972;5.682;2024-01-07T11:31:25;6.30;;;4.75;;
75216;SDS011;63800;51.972;5.682;2024-01-07T11:34:07;7.53;;;5.07;;
75216;SDS011;63800;51.972;5.682;2024-01-07T11:36:36;7.03;;;4.90;;
75216;SDS011;63800;51.972;5.682;2024-01-07T11:39:04;5.45;;;4.75;;
75216;SDS011;63800;51.972;5.682;2024-01-07T11:41:34;5.93;;;4.53;;
75216;SDS011;63800;51.972;5.682;2024-01-07T11:44:00;5.00;;;4.50;;
75216;SDS011;63800;51.972;5.682;2024-01-07T11:46:26;6.07;;;4.75;;
75216;SDS011;63800;51.972;5.682;2024-01-07T11:48:59;6.35;;;4.43;;
75216;SDS011;63800;51.972;5.682;2024-01-07T11:51:25;4.95;;;3.90;;
75216;SDS011;63800;51.972;5.682;2024-01-07T11:53:51;6.93;;;3.95;;
75216;SDS011;63800;51.972;5.682;2024-01-07T11:56:17;6.28;;;3.90;;
75216;SDS011;63800;51.972;5.682;2024-01-07T11:58:43;4.25;;;3.75;;
75216;SDS011;63800;51.972;5.682;2024-01-07T12:01:09;4.70;;;3.38;;
75216;SDS011;63800;51.972;5.682;2024-01-07T12:03:34;3.30;;;3.00;;
75216;SDS011;63800;51.972;5.682;2024-01-07T12:06:00;4.40;;;3.40;;
75216;SDS011;63800;51.972;5.682;2024-01-07T12:08:26;3.97;;;2.95;;
75216;SDS011;63800;51.972;5.682;2024-01-07T12:10:51;4.18;;;3.00;;
75216;SDS011;63800;51.972;5.682;2024-01-07T12:13:17;3.58;;;2.83;;
75216;SDS011;63800;51.972;5.682;2024-01-07T12:15:44;3.47;;;2.88;;
75216;SDS011;63800;51.972;5.682;2024-01-07T12:18:10;2.80;;;2.60;;
75216;SDS011;63800;51.972;5.682;2024-01-07T12:20:36;2.75;;;2.55;;
75216;SDS011;63800;51.972;5.682;2024-01-07T12:23:08;2.85;;;2.65;;
75216;SDS011;63800;51.972;5.682;2024-01-07T12:25:34;3.10;;;2.80;;
75216;SDS011;63800;51.972;5.682;2024-01-07T12:28:00;4.68;;;2.70;;
75216;SDS011;63800;51.972;5.682;2024-01-07T12:30:27;3.47;;;2.80;;
75216;SDS011;63800;51.972;5.682;2024-01-07T12:32:52;3.30;;;2.50;;
75216;SDS011;63800;51.972;5.682;2024-01-07T12:35:18;3.42;;;2.30;;
75216;SDS011;63800;51.972;5.682;2024-01-07T12:37:45;2.58;;;2.38;;
75216;SDS011;63800;51.972;5.682;2024-01-07T12:40:14;2.92;;;2.33;;
75216;SDS011;63800;51.972;5.682;2024-01-07T12:42:41;2.35;;;2.10;;
75216;SDS011;63800;51.972;5.682;2024-01-07T12:45:13;3.42;;;2.35;;
75216;SDS011;63800;51.972;5.682;2024-01-07T12:47:42;2.80;;;2.22;;
75216;SDS011;63800;51.972;5.682;2024-01-07T12:50:15;2.65;;;2.00;;
75216;SDS011;63800;51.972;5.682;2024-01-07T12:52:41;2.83;;;2.40;;
75216;SDS011;63800;51.972;5.682;2024-01-07T12:55:08;3.15;;;2.45;;
75216;SDS011;63800;51.972;5.682;2024-01-07T12:57:35;3.03;;;2.53;;
75216;SDS011;63800;51.972;5.682;2024-01-07T13:00:01;2.42;;;2.22;;
75216;SDS011;63800;51.972;5.682;2024-01-07T13:02:31;2.67;;;2.47;;
75216;SDS011;63800;51.972;5.682;2024-01-07T13:04:58;2.35;;;2.15;;
75216;SDS011;63800;51.972;5.682;2024-01-07T13:07:23;3.10;;;2.50;;
75216;SDS011;63800;51.972;5.682;2024-01-07T13:09:49;3.30;;;2.60;;
75216;SDS011;63800;51.972;5.682;2024-01-07T13:12:14;3.08;;;2.42;;
75216;SDS011;63800;51.972;5.682;2024-01-07T13:14:41;3.17;;;2.75;;
75216;SDS011;63800;51.972;5.682;2024-01-07T13:17:08;3.22;;;2.20;;
75216;SDS011;63800;51.972;5.682;2024-01-07T13:19:33;3.15;;;2.60;;
75216;SDS011;63800;51.972;5.682;2024-01-07T13:21:59;3.63;;;2.42;;
75216;SDS011;63800;51.972;5.682;2024-01-07T13:24:26;3.03;;;2.72;;
75216;SDS011;63800;51.972;5.682;2024-01-07T13:26:53;2.50;;;2.30;;
75216;SDS011;63800;51.972;5.682;2024-01-07T13:29:18;2.58;;;2.30;;
75216;SDS011;63800;51.972;5.682;2024-01-07T13:31:43;2.53;;;2.13;;
75216;SDS011;63800;51.972;5.682;2024-01-07T13:34:09;3.20;;;2.13;;
75216;SDS011;63800;51.972;5.682;2024-01-07T13:36:34;2.65;;;2.25;;
75216;SDS011;63800;51.972;5.682;2024-01-07T13:39:00;3.70;;;2.30;;
75216;SDS011;63800;51.972;5.682;2024-01-07T13:41:26;2.00;;;1.80;;
75216;SDS011;63800;51.972;5.682;2024-01-07T13:43:54;3.08;;;2.38;;
75216;SDS011;63800;51.972;5.682;2024-01-07T13:46:20;2.45;;;2.10;;
75216;SDS011;63800;51.972;5.682;2024-01-07T13:48:48;5.10;;;2.45;;
75216;SDS011;63800;51.972;5.682;2024-01-07T13:51:14;3.63;;;2.20;;
75216;SDS011;63800;51.972;5.682;2024-01-07T13:53:39;3.17;;;2.15;;
75216;SDS011;63800;51.972;5.682;2024-01-07T13:56:05;2.15;;;1.95;;
75216;SDS011;63800;51.972;5.682;2024-01-07T13:58:32;2.45;;;2.03;;
75216;SDS011;63800;51.972;5.682;2024-01-07T14:00:58;2.20;;;2.00;;
75216;SDS011;63800;51.972;5.682;2024-01-07T14:03:23;2.15;;;1.92;;
75216;SDS011;63800;51.972;5.682;2024-01-07T14:05:49;2.22;;;1.90;;
75216;SDS011;63800;51.972;5.682;2024-01-07T14:08:16;2.75;;;2.00;;
75216;SDS011;63800;51.972;5.682;2024-01-07T14:10:43;2.50;;;2.13;;
75216;SDS011;63800;51.972;5.682;2024-01-07T14:13:08;5.43;;;2.15;;
75216;SDS011;63800;51.972;5.682;2024-01-07T14:15:34;1.90;;;1.80;;
75216;SDS011;63800;51.972;5.682;2024-01-07T14:17:59;2.20;;;1.70;;
75216;SDS011;63800;51.972;5.682;2024-01-07T14:20:25;3.10;;;1.95;;
75216;SDS011;63800;51.972;5.682;2024-01-07T14:22:53;2.10;;;1.90;;
75216;SDS011;63800;51.972;5.682;2024-01-07T14:25:19;2.65;;;1.95;;
75216;SDS011;63800;51.972;5.682;2024-01-07T14:27:44;2.50;;;1.83;;